sensor_id;sensor_type;location;lat;lon;timestamp;temperature;humidity
3562;DHT22;1795;52.074;4.754;2023-03-01T00:01:14;1.60;99.90
3562;DHT22;1795;52.074;4.754;2023-03-01T00:03:43;1.60;99.90
3562;DHT22;1795;52.074;4.754;2023-03-01T00:06:12;1.60;99.90
3562;DHT22;1795;52.074;4.754;2023-03-01T00:08:40;1.60;99.90
3562;DHT22;1795;52.074;4.754;2023-03-01T00:11:10;1.50;99.90
3562;DHT22;1795;52.074;4.754;2023-03-01T00:13:40;1.50;99.90
3562;DHT22;1795;52.074;4.754;2023-03-01T00:16:11;1.50;99.90
3562;DHT22;1795;52.074;4.754;2023-03-01T00:18:39;1.50;99.90
3562;DHT22;1795;52.074;4.754;2023-03-01T00:21:09;1.50;99.90
3562;DHT22;1795;52.074;4.754;2023-03-01T00:23:37;1.50;99.90
3562;DHT22;1795;52.074;4.754;2023-03-01T00:26:07;1.50;99.90
3562;DHT22;1795;52.074;4.754;2023-03-01T00:28:36;1.40;99.90
3562;DHT22;1795;52.074;4.754;2023-03-01T00:31:04;1.40;99.90
3562;DHT22;1795;52.074;4.754;2023-03-01T00:33:33;1.40;99.90
3562;DHT22;1795;52.074;4.754;2023-03-01T00:36:01;1.40;99.90
3562;DHT22;1795;52.074;4.754;2023-03-01T00:38:34;1.40;99.90
3562;DHT22;1795;52.074;4.754;2023-03-01T00:41:03;1.40;99.90
3562;DHT22;1795;52.074;4.754;2023-03-01T00:43:32;1.40;99.90
3562;DHT22;1795;52.074;4.754;2023-03-01T00:46:04;1.40;99.90
3562;DHT22;1795;52.074;4.754;2023-03-01T00:48:32;1.40;99.90
3562;DHT22;1795;52.074;4.754;2023-03-01T00:51:05;1.40;99.90
3562;DHT22;1795;52.074;4.754;2023-03-01T00:53:35;1.30;99.90
3562;DHT22;1795;52.074;4.754;2023-03-01T00:56:05;1.30;99.90
3562;DHT22;1795;52.074;4.754;2023-03-01T00:58:34;1.30;99.90
3562;DHT22;1795;52.074;4.754;2023-03-01T01:01:07;1.30;99.90
3562;DHT22;1795;52.074;4.754;2023-03-01T01:03:45;1.30;99.90
3562;DHT22;1795;52.074;4.754;2023-03-01T01:06:15;1.30;99.90
3562;DHT22;1795;52.074;4.754;2023-03-01T01:08:44;1.30;99.90
3562;DHT22;1795;52.074;4.754;2023-03-01T01:11:13;1.20;99.90
3562;DHT22;1795;52.074;4.754;2023-03-01T01:13:43;1.20;99.90
3562;DHT22;1795;52.074;4.754;2023-03-01T01:16:11;1.20;99.90
3562;DHT22;1795;52.074;4.754;2023-03-01T01:18:40;1.20;99.90
3562;DHT22;1795;52.074;4.754;2023-03-01T01:21:10;1.20;99.90
3562;DHT22;1795;52.074;4.754;2023-03-01T01:23:39;1.20;99.90
3562;DHT22;1795;52.074;4.754;2023-03-01T01:26:11;1.20;99.90
3562;DHT22;1795;52.074;4.754;2023-03-01T01:28:39;1.20;99.90
3562;DHT22;1795;52.074;4.754;2023-03-01T01:31:07;1.20;99.90
3562;DHT22;1795;52.074;4.754;2023-03-01T01:33:36;1.20;99.90
3562;DHT22;1795;52.074;4.754;2023-03-01T01:36:05;1.10;99.90
3562;DHT22;1795;52.074;4.754;2023-03-01T01:38:33;1.10;99.90
3562;DHT22;1795;52.074;4.754;2023-03-01T01:41:01;1.10;99.90
3562;DHT22;1795;52.074;4.754;2023-03-01T01:43:34;1.10;99.90
3562;DHT22;1795;52.074;4.754;2023-03-01T01:46:04;1.10;99.90
3562;DHT22;1795;52.074;4.754;2023-03-01T01:48:39;1.10;99.90
3562;DHT22;1795;52.074;4.754;2023-03-01T01:51:12;1.10;99.90
3562;DHT22;1795;52.074;4.754;2023-03-01T01:53:41;1.00;99.90
3562;DHT22;1795;52.074;4.754;2023-03-01T01:56:11;1.00;99.90
3562;DHT22;1795;52.074;4.754;2023-03-01T01:58:43;1.00;99.90
3562;DHT22;1795;52.074;4.754;2023-03-01T02:01:14;1.00;99.90
3562;DHT22;1795;52.074;4.754;2023-03-01T02:03:43;1.00;99.90
3562;DHT22;1795;52.074;4.754;2023-03-01T02:06:17;1.00;99.90
3562;DHT22;1795;52.074;4.754;2023-03-01T02:08:48;1.00;99.90
3562;DHT22;1795;52.074;4.754;2023-03-01T02:11:17;1.00;99.90
3562;DHT22;1795;52.074;4.754;2023-03-01T02:13:48;0.90;99.90
3562;DHT22;1795;52.074;4.754;2023-03-01T02:16:16;0.90;99.90
3562;DHT22;1795;52.074;4.754;2023-03-01T02:18:45;0.90;99.90
3562;DHT22;1795;52.074;4.754;2023-03-01T02:21:25;0.90;99.90
3562;DHT22;1795;52.074;4.754;2023-03-01T02:23:59;0.90;99.90
3562;DHT22;1795;52.074;4.754;2023-03-01T02:26:34;0.90;99.90
3562;DHT22;1795;52.074;4.754;2023-03-01T02:29:07;0.80;99.90
3562;DHT22;1795;52.074;4.754;2023-03-01T02:31:35;0.80;99.90
3562;DHT22;1795;52.074;4.754;2023-03-01T02:34:11;0.80;99.90
3562;DHT22;1795;52.074;4.754;2023-03-01T02:36:42;0.80;99.90
3562;DHT22;1795;52.074;4.754;2023-03-01T02:39:13;0.80;99.90
3562;DHT22;1795;52.074;4.754;2023-03-01T02:41:46;0.80;99.90
3562;DHT22;1795;52.074;4.754;2023-03-01T02:44:16;0.80;99.90
3562;DHT22;1795;52.074;4.754;2023-03-01T02:46:46;0.80;99.90
3562;DHT22;1795;52.074;4.754;2023-03-01T02:49:21;0.70;99.90
3562;DHT22;1795;52.074;4.754;2023-03-01T02:54:51;0.70;99.90
3562;DHT22;1795;52.074;4.754;2023-03-01T02:57:20;0.70;99.90
3562;DHT22;1795;52.074;4.754;2023-03-01T02:59:51;0.70;99.90
3562;DHT22;1795;52.074;4.754;2023-03-01T03:02:22;0.70;99.90
3562;DHT22;1795;52.074;4.754;2023-03-01T03:05:08;0.60;99.90
3562;DHT22;1795;52.074;4.754;2023-03-01T03:07:38;0.60;99.90
3562;DHT22;1795;52.074;4.754;2023-03-01T03:10:09;0.60;99.90
3562;DHT22;1795;52.074;4.754;2023-03-01T03:12:38;0.60;99.90
3562;DHT22;1795;52.074;4.754;2023-03-01T03:15:09;0.60;99.90
3562;DHT22;1795;52.074;4.754;2023-03-01T03:17:41;0.60;99.90
3562;DHT22;1795;52.074;4.754;2023-03-01T03:20:13;0.60;99.90
3562;DHT22;1795;52.074;4.754;2023-03-01T03:22:46;0.60;99.90
3562;DHT22;1795;52.074;4.754;2023-03-01T03:25:14;0.60;99.90
3562;DHT22;1795;52.074;4.754;2023-03-01T03:27:43;0.50;99.90
3562;DHT22;1795;52.074;4.754;2023-03-01T03:30:15;0.50;99.90
3562;DHT22;1795;52.074;4.754;2023-03-01T03:32:45;0.50;99.90
3562;DHT22;1795;52.074;4.754;2023-03-01T03:35:20;0.50;99.90
3562;DHT22;1795;52.074;4.754;2023-03-01T03:37:48;0.50;99.90
3562;DHT22;1795;52.074;4.754;2023-03-01T03:40:35;0.50;99.90
3562;DHT22;1795;52.074;4.754;2023-03-01T03:43:05;0.50;99.90
3562;DHT22;1795;52.074;4.754;2023-03-01T03:45:35;0.50;99.90
3562;DHT22;1795;52.074;4.754;2023-03-01T03:48:05;0.40;99.90
3562;DHT22;1795;52.074;4.754;2023-03-01T03:50:34;0.40;99.90
3562;DHT22;1795;52.074;4.754;2023-03-01T03:53:05;0.40;99.90
3562;DHT22;1795;52.074;4.754;2023-03-01T03:55:33;0.40;99.90
3562;DHT22;1795;52.074;4.754;2023-03-01T03:58:02;0.40;99.90
3562;DHT22;1795;52.074;4.754;2023-03-01T04:00:36;0.40;99.90
3562;DHT22;1795;52.074;4.754;2023-03-01T04:03:04;0.40;99.90
3562;DHT22;1795;52.074;4.754;2023-03-01T04:05:33;0.30;99.90
3562;DHT22;1795;52.074;4.754;2023-03-01T04:08:01;0.30;99.90
3562;DHT22;1795;52.074;4.754;2023-03-01T04:10:30;0.30;99.90
3562;DHT22;1795;52.074;4.754;2023-03-01T04:12:58;0.30;99.90
3562;DHT22;1795;52.074;4.754;2023-03-01T04:15:26;0.30;99.90
3562;DHT22;1795;52.074;4.754;2023-03-01T04:17:56;0.30;99.90
3562;DHT22;1795;52.074;4.754;2023-03-01T04:20:27;0.30;99.90
3562;DHT22;1795;52.074;4.754;2023-03-01T04:22:59;0.20;99.90
3562;DHT22;1795;52.074;4.754;2023-03-01T04:25:38;0.20;99.90
3562;DHT22;1795;52.074;4.754;2023-03-01T04:28:06;0.20;99.90
3562;DHT22;1795;52.074;4.754;2023-03-01T04:30:35;0.20;99.90
3562;DHT22;1795;52.074;4.754;2023-03-01T04:33:06;0.20;99.90
3562;DHT22;1795;52.074;4.754;2023-03-01T04:35:35;0.20;99.90
3562;DHT22;1795;52.074;4.754;2023-03-01T04:38:03;0.20;99.90
3562;DHT22;1795;52.074;4.754;2023-03-01T04:40:32;0.20;99.90
3562;DHT22;1795;52.074;4.754;2023-03-01T04:43:00;0.10;99.90
3562;DHT22;1795;52.074;4.754;2023-03-01T04:45:28;0.10;99.90
3562;DHT22;1795;52.074;4.754;2023-03-01T04:47:56;0.10;99.90
3562;DHT22;1795;52.074;4.754;2023-03-01T04:50:26;0.10;99.90
3562;DHT22;1795;52.074;4.754;2023-03-01T04:52:54;0.10;99.90
3562;DHT22;1795;52.074;4.754;2023-03-01T04:55:25;0.10;99.90
3562;DHT22;1795;52.074;4.754;2023-03-01T04:57:54;0.10;99.90
3562;DHT22;1795;52.074;4.754;2023-03-01T05:00:22;0.00;99.90
3562;DHT22;1795;52.074;4.754;2023-03-01T05:02:53;0.00;99.90
3562;DHT22;1795;52.074;4.754;2023-03-01T05:05:27;0.00;99.90
3562;DHT22;1795;52.074;4.754;2023-03-01T05:07:57;0.00;99.90
3562;DHT22;1795;52.074;4.754;2023-03-01T05:10:26;0.00;99.90
3562;DHT22;1795;52.074;4.754;2023-03-01T05:12:55;0.00;99.90
3562;DHT22;1795;52.074;4.754;2023-03-01T05:15:25;0.00;99.90
3562;DHT22;1795;52.074;4.754;2023-03-01T05:17:55;0.00;99.90
3562;DHT22;1795;52.074;4.754;2023-03-01T05:20:27;-0.10;99.90
3562;DHT22;1795;52.074;4.754;2023-03-01T05:22:58;-0.10;99.90
3562;DHT22;1795;52.074;4.754;2023-03-01T05:25:26;-0.10;99.90
3562;DHT22;1795;52.074;4.754;2023-03-01T05:27:59;-0.10;99.90
3562;DHT22;1795;52.074;4.754;2023-03-01T05:30:31;-0.10;99.90
3562;DHT22;1795;52.074;4.754;2023-03-01T05:33:00;-0.10;99.90
3562;DHT22;1795;52.074;4.754;2023-03-01T05:35:29;-0.10;99.90
3562;DHT22;1795;52.074;4.754;2023-03-01T05:38:00;-0.10;99.90
3562;DHT22;1795;52.074;4.754;2023-03-01T05:40:28;-0.20;99.90
3562;DHT22;1795;52.074;4.754;2023-03-01T05:42:56;-0.20;99.90
3562;DHT22;1795;52.074;4.754;2023-03-01T05:45:26;-0.20;99.90
3562;DHT22;1795;52.074;4.754;2023-03-01T05:47:54;-0.20;99.90
3562;DHT22;1795;52.074;4.754;2023-03-01T05:50:23;-0.20;99.90
3562;DHT22;1795;52.074;4.754;2023-03-01T05:52:58;-0.20;99.90
3562;DHT22;1795;52.074;4.754;2023-03-01T05:55:27;-0.30;99.90
3562;DHT22;1795;52.074;4.754;2023-03-01T05:57:55;-0.30;99.90
3562;DHT22;1795;52.074;4.754;2023-03-01T06:00:25;-0.30;99.90
3562;DHT22;1795;52.074;4.754;2023-03-01T06:02:53;-0.30;99.90
3562;DHT22;1795;52.074;4.754;2023-03-01T06:05:22;-0.30;99.90
3562;DHT22;1795;52.074;4.754;2023-03-01T06:07:50;-0.30;99.90
3562;DHT22;1795;52.074;4.754;2023-03-01T06:10:22;-0.30;99.90
3562;DHT22;1795;52.074;4.754;2023-03-01T06:12:50;-0.30;99.90
3562;DHT22;1795;52.074;4.754;2023-03-01T06:15:19;-0.40;99.90
3562;DHT22;1795;52.074;4.754;2023-03-01T06:17:48;-0.40;99.90
3562;DHT22;1795;52.074;4.754;2023-03-01T06:20:18;-0.40;99.90
3562;DHT22;1795;52.074;4.754;2023-03-01T06:22:47;-0.40;99.90
3562;DHT22;1795;52.074;4.754;2023-03-01T06:25:17;-0.40;99.90
3562;DHT22;1795;52.074;4.754;2023-03-01T06:27:47;-0.40;99.90
3562;DHT22;1795;52.074;4.754;2023-03-01T06:30:17;-0.40;99.90
3562;DHT22;1795;52.074;4.754;2023-03-01T06:32:46;-0.50;99.90
3562;DHT22;1795;52.074;4.754;2023-03-01T06:35:15;-0.50;99.90
3562;DHT22;1795;52.074;4.754;2023-03-01T06:37:45;-0.50;99.90
3562;DHT22;1795;52.074;4.754;2023-03-01T06:40:13;-0.50;99.90
3562;DHT22;1795;52.074;4.754;2023-03-01T06:42:44;-0.50;99.90
3562;DHT22;1795;52.074;4.754;2023-03-01T06:45:17;-0.50;99.90
3562;DHT22;1795;52.074;4.754;2023-03-01T06:47:46;-0.50;99.90
3562;DHT22;1795;52.074;4.754;2023-03-01T06:50:15;-0.50;99.90
3562;DHT22;1795;52.074;4.754;2023-03-01T06:52:44;-0.50;99.90
3562;DHT22;1795;52.074;4.754;2023-03-01T06:55:12;-0.50;99.90
3562;DHT22;1795;52.074;4.754;2023-03-01T06:57:40;-0.50;99.90
3562;DHT22;1795;52.074;4.754;2023-03-01T07:00:09;-0.50;99.90
3562;DHT22;1795;52.074;4.754;2023-03-01T07:02:39;-0.50;99.90
3562;DHT22;1795;52.074;4.754;2023-03-01T07:05:07;-0.50;99.90
3562;DHT22;1795;52.074;4.754;2023-03-01T07:07:35;-0.50;99.90
3562;DHT22;1795;52.074;4.754;2023-03-01T07:10:04;-0.50;99.90
3562;DHT22;1795;52.074;4.754;2023-03-01T07:12:32;-0.50;99.90
3562;DHT22;1795;52.074;4.754;2023-03-01T07:15:00;-0.50;99.90
3562;DHT22;1795;52.074;4.754;2023-03-01T07:17:28;-0.50;99.90
3562;DHT22;1795;52.074;4.754;2023-03-01T07:19:57;-0.60;99.90
3562;DHT22;1795;52.074;4.754;2023-03-01T07:22:25;-0.60;99.90
3562;DHT22;1795;52.074;4.754;2023-03-01T07:24:53;-0.60;99.90
3562;DHT22;1795;52.074;4.754;2023-03-01T07:27:21;-0.60;99.90
3562;DHT22;1795;52.074;4.754;2023-03-01T07:29:49;-0.60;99.90
3562;DHT22;1795;52.074;4.754;2023-03-01T07:32:17;-0.60;99.90
3562;DHT22;1795;52.074;4.754;2023-03-01T07:34:45;-0.60;99.90
3562;DHT22;1795;52.074;4.754;2023-03-01T07:37:15;-0.60;99.90
3562;DHT22;1795;52.074;4.754;2023-03-01T07:39:43;-0.60;99.90
3562;DHT22;1795;52.074;4.754;2023-03-01T07:42:11;-0.60;99.90
3562;DHT22;1795;52.074;4.754;2023-03-01T07:44:39;-0.60;99.90
3562;DHT22;1795;52.074;4.754;2023-03-01T07:47:07;-0.60;99.90
3562;DHT22;1795;52.074;4.754;2023-03-01T07:49:35;-0.60;99.90
3562;DHT22;1795;52.074;4.754;2023-03-01T07:52:03;-0.50;99.90
3562;DHT22;1795;52.074;4.754;2023-03-01T07:54:32;-0.50;99.90
3562;DHT22;1795;52.074;4.754;2023-03-01T07:57:00;-0.50;99.90
3562;DHT22;1795;52.074;4.754;2023-03-01T07:59:28;-0.50;99.90
3562;DHT22;1795;52.074;4.754;2023-03-01T08:01:56;-0.50;99.90
3562;DHT22;1795;52.074;4.754;2023-03-01T08:04:25;-0.50;99.90
3562;DHT22;1795;52.074;4.754;2023-03-01T08:06:53;-0.50;99.90
3562;DHT22;1795;52.074;4.754;2023-03-01T08:09:21;-0.50;99.90
3562;DHT22;1795;52.074;4.754;2023-03-01T08:11:51;-0.40;99.90
3562;DHT22;1795;52.074;4.754;2023-03-01T08:14:19;-0.40;99.90
3562;DHT22;1795;52.074;4.754;2023-03-01T08:16:49;-0.40;99.90
3562;DHT22;1795;52.074;4.754;2023-03-01T08:19:17;-0.40;99.90
3562;DHT22;1795;52.074;4.754;2023-03-01T08:21:45;-0.40;99.90
3562;DHT22;1795;52.074;4.754;2023-03-01T08:24:13;-0.40;99.90
3562;DHT22;1795;52.074;4.754;2023-03-01T08:26:41;-0.30;99.90
3562;DHT22;1795;52.074;4.754;2023-03-01T08:29:10;-0.30;99.90
3562;DHT22;1795;52.074;4.754;2023-03-01T08:31:39;-0.30;99.90
3562;DHT22;1795;52.074;4.754;2023-03-01T08:34:09;-0.30;99.90
3562;DHT22;1795;52.074;4.754;2023-03-01T08:36:39;-0.20;99.90
3562;DHT22;1795;52.074;4.754;2023-03-01T08:39:08;-0.20;99.90
3562;DHT22;1795;52.074;4.754;2023-03-01T08:41:36;-0.10;99.90
3562;DHT22;1795;52.074;4.754;2023-03-01T08:44:05;-0.10;99.90
3562;DHT22;1795;52.074;4.754;2023-03-01T08:46:38;0.00;99.90
3562;DHT22;1795;52.074;4.754;2023-03-01T08:49:07;0.00;99.90
3562;DHT22;1795;52.074;4.754;2023-03-01T08:51:36;0.00;99.90
3562;DHT22;1795;52.074;4.754;2023-03-01T08:54:05;0.10;99.90
3562;DHT22;1795;52.074;4.754;2023-03-01T08:56:33;0.10;99.90
3562;DHT22;1795;52.074;4.754;2023-03-01T08:59:01;0.20;99.90
3562;DHT22;1795;52.074;4.754;2023-03-01T09:01:29;0.20;99.90
3562;DHT22;1795;52.074;4.754;2023-03-01T09:03:59;0.30;99.90
3562;DHT22;1795;52.074;4.754;2023-03-01T09:06:30;0.40;99.90
3562;DHT22;1795;52.074;4.754;2023-03-01T09:09:00;0.40;99.90
3562;DHT22;1795;52.074;4.754;2023-03-01T09:11:28;0.50;99.90
3562;DHT22;1795;52.074;4.754;2023-03-01T09:13:56;0.60;99.90
3562;DHT22;1795;52.074;4.754;2023-03-01T09:16:24;0.60;99.90
3562;DHT22;1795;52.074;4.754;2023-03-01T09:18:53;0.80;99.90
3562;DHT22;1795;52.074;4.754;2023-03-01T09:21:23;0.80;99.90
3562;DHT22;1795;52.074;4.754;2023-03-01T09:24:06;1.00;99.90
3562;DHT22;1795;52.074;4.754;2023-03-01T09:26:36;1.10;99.90
3562;DHT22;1795;52.074;4.754;2023-03-01T09:29:04;1.20;99.90
3562;DHT22;1795;52.074;4.754;2023-03-01T09:31:32;1.30;99.90
3562;DHT22;1795;52.074;4.754;2023-03-01T09:34:00;1.40;99.90
3562;DHT22;1795;52.074;4.754;2023-03-01T09:36:30;1.50;99.90
3562;DHT22;1795;52.074;4.754;2023-03-01T09:38:59;1.60;99.90
3562;DHT22;1795;52.074;4.754;2023-03-01T09:41:44;1.70;99.90
3562;DHT22;1795;52.074;4.754;2023-03-01T09:44:21;1.80;99.90
3562;DHT22;1795;52.074;4.754;2023-03-01T09:46:52;1.90;99.90
3562;DHT22;1795;52.074;4.754;2023-03-01T09:49:23;2.00;99.90
3562;DHT22;1795;52.074;4.754;2023-03-01T09:52:00;2.20;99.90
3562;DHT22;1795;52.074;4.754;2023-03-01T09:54:28;2.30;99.90
3562;DHT22;1795;52.074;4.754;2023-03-01T09:57:16;2.40;99.90
3562;DHT22;1795;52.074;4.754;2023-03-01T09:59:56;2.50;99.90
3562;DHT22;1795;52.074;4.754;2023-03-01T10:02:37;2.60;99.90
3562;DHT22;1795;52.074;4.754;2023-03-01T10:08:23;2.90;99.90
3562;DHT22;1795;52.074;4.754;2023-03-01T10:10:52;2.90;99.90
3562;DHT22;1795;52.074;4.754;2023-03-01T10:13:25;3.00;99.90
3562;DHT22;1795;52.074;4.754;2023-03-01T10:15:57;3.20;99.90
3562;DHT22;1795;52.074;4.754;2023-03-01T10:18:29;3.20;99.90
3562;DHT22;1795;52.074;4.754;2023-03-01T10:21:01;3.30;99.90
3562;DHT22;1795;52.074;4.754;2023-03-01T10:23:32;3.50;99.90
3562;DHT22;1795;52.074;4.754;2023-03-01T10:26:11;3.50;99.90
3562;DHT22;1795;52.074;4.754;2023-03-01T10:28:48;3.70;99.90
3562;DHT22;1795;52.074;4.754;2023-03-01T10:31:21;3.70;99.90
3562;DHT22;1795;52.074;4.754;2023-03-01T10:33:55;3.80;99.90
3562;DHT22;1795;52.074;4.754;2023-03-01T10:36:25;3.90;99.90
3562;DHT22;1795;52.074;4.754;2023-03-01T10:38:56;4.00;99.90
3562;DHT22;1795;52.074;4.754;2023-03-01T10:41:25;4.10;99.90
3562;DHT22;1795;52.074;4.754;2023-03-01T10:43:55;4.20;99.90
3562;DHT22;1795;52.074;4.754;2023-03-01T10:46:25;4.30;99.90
3562;DHT22;1795;52.074;4.754;2023-03-01T10:49:12;4.40;99.90
3562;DHT22;1795;52.074;4.754;2023-03-01T10:51:42;4.50;99.90
3562;DHT22;1795;52.074;4.754;2023-03-01T10:54:20;4.50;99.90
3562;DHT22;1795;52.074;4.754;2023-03-01T10:56:51;4.60;99.90
3562;DHT22;1795;52.074;4.754;2023-03-01T10:59:25;4.70;99.90
3562;DHT22;1795;52.074;4.754;2023-03-01T11:02:14;4.70;99.90
3562;DHT22;1795;52.074;4.754;2023-03-01T11:04:59;4.80;99.90
3562;DHT22;1795;52.074;4.754;2023-03-01T11:07:28;4.90;99.90
3562;DHT22;1795;52.074;4.754;2023-03-01T11:09:57;5.00;99.90
3562;DHT22;1795;52.074;4.754;2023-03-01T11:12:26;5.00;99.90
3562;DHT22;1795;52.074;4.754;2023-03-01T11:14:57;5.10;99.90
3562;DHT22;1795;52.074;4.754;2023-03-01T11:17:28;5.10;99.90
3562;DHT22;1795;52.074;4.754;2023-03-01T11:20:14;5.20;99.90
3562;DHT22;1795;52.074;4.754;2023-03-01T11:22:48;5.30;99.90
3562;DHT22;1795;52.074;4.754;2023-03-01T11:25:22;5.40;99.90
3562;DHT22;1795;52.074;4.754;2023-03-01T11:27:52;5.50;99.90
3562;DHT22;1795;52.074;4.754;2023-03-01T11:30:23;5.50;99.90
3562;DHT22;1795;52.074;4.754;2023-03-01T11:33:03;5.60;99.90
3562;DHT22;1795;52.074;4.754;2023-03-01T11:35:35;5.60;99.90
3562;DHT22;1795;52.074;4.754;2023-03-01T11:38:16;5.80;99.90
3562;DHT22;1795;52.074;4.754;2023-03-01T11:40:51;5.80;99.90
3562;DHT22;1795;52.074;4.754;2023-03-01T11:43:28;5.80;99.90
3562;DHT22;1795;52.074;4.754;2023-03-01T11:46:27;5.80;99.90
3562;DHT22;1795;52.074;4.754;2023-03-01T11:49:05;5.90;99.90
3562;DHT22;1795;52.074;4.754;2023-03-01T11:51:42;6.00;99.90
3562;DHT22;1795;52.074;4.754;2023-03-01T11:54:26;6.00;99.90
3562;DHT22;1795;52.074;4.754;2023-03-01T11:57:01;6.00;99.90
3562;DHT22;1795;52.074;4.754;2023-03-01T11:59:59;6.10;99.90
3562;DHT22;1795;52.074;4.754;2023-03-01T12:03:06;6.10;99.90
3562;DHT22;1795;52.074;4.754;2023-03-01T12:06:18;6.10;99.90
3562;DHT22;1795;52.074;4.754;2023-03-01T12:09:02;6.20;99.90
3562;DHT22;1795;52.074;4.754;2023-03-01T12:11:40;6.30;99.90
3562;DHT22;1795;52.074;4.754;2023-03-01T12:14:28;6.30;99.90
3562;DHT22;1795;52.074;4.754;2023-03-01T12:17:32;6.30;99.90
3562;DHT22;1795;52.074;4.754;2023-03-01T12:20:14;6.40;99.90
3562;DHT22;1795;52.074;4.754;2023-03-01T12:22:57;6.40;99.90
3562;DHT22;1795;52.074;4.754;2023-03-01T12:25:48;6.50;99.90
3562;DHT22;1795;52.074;4.754;2023-03-01T12:28:28;6.50;99.90
3562;DHT22;1795;52.074;4.754;2023-03-01T12:34:06;6.60;99.90
3562;DHT22;1795;52.074;4.754;2023-03-01T12:36:54;6.60;99.90
3562;DHT22;1795;52.074;4.754;2023-03-01T12:39:36;6.70;99.90
3562;DHT22;1795;52.074;4.754;2023-03-01T12:42:14;6.70;99.90
3562;DHT22;1795;52.074;4.754;2023-03-01T12:44:57;6.80;99.90
3562;DHT22;1795;52.074;4.754;2023-03-01T12:47:52;6.80;99.90
3562;DHT22;1795;52.074;4.754;2023-03-01T12:50:28;6.80;99.90
3562;DHT22;1795;52.074;4.754;2023-03-01T12:53:00;6.80;99.90
3562;DHT22;1795;52.074;4.754;2023-03-01T12:55:31;6.90;99.90
3562;DHT22;1795;52.074;4.754;2023-03-01T12:58:07;6.90;99.90
3562;DHT22;1795;52.074;4.754;2023-03-01T13:00:44;6.90;99.90
3562;DHT22;1795;52.074;4.754;2023-03-01T13:03:19;6.90;99.90
3562;DHT22;1795;52.074;4.754;2023-03-01T13:06:03;7.00;99.90
3562;DHT22;1795;52.074;4.754;2023-03-01T13:08:36;7.00;99.90
3562;DHT22;1795;52.074;4.754;2023-03-01T13:11:15;7.00;99.90
3562;DHT22;1795;52.074;4.754;2023-03-01T13:13:45;7.10;99.90
3562;DHT22;1795;52.074;4.754;2023-03-01T13:16:39;7.10;99.90
3562;DHT22;1795;52.074;4.754;2023-03-01T13:19:13;7.10;99.90
3562;DHT22;1795;52.074;4.754;2023-03-01T13:21:44;7.20;99.90
3562;DHT22;1795;52.074;4.754;2023-03-01T13:24:26;7.20;99.90
3562;DHT22;1795;52.074;4.754;2023-03-01T13:27:18;7.20;99.90
3562;DHT22;1795;52.074;4.754;2023-03-01T13:29:53;7.30;99.90
3562;DHT22;1795;52.074;4.754;2023-03-01T13:32:22;7.30;99.90
3562;DHT22;1795;52.074;4.754;2023-03-01T13:35:42;7.40;99.90
3562;DHT22;1795;52.074;4.754;2023-03-01T13:38:38;7.40;99.90
3562;DHT22;1795;52.074;4.754;2023-03-01T13:41:06;7.40;99.90
3562;DHT22;1795;52.074;4.754;2023-03-01T13:43:36;7.50;99.90
3562;DHT22;1795;52.074;4.754;2023-03-01T13:46:12;7.50;99.90
3562;DHT22;1795;52.074;4.754;2023-03-01T13:48:45;7.50;99.90
3562;DHT22;1795;52.074;4.754;2023-03-01T13:51:15;7.50;99.90
3562;DHT22;1795;52.074;4.754;2023-03-01T13:53:46;7.60;99.90
3562;DHT22;1795;52.074;4.754;2023-03-01T13:56:17;7.70;99.90
3562;DHT22;1795;52.074;4.754;2023-03-01T13:58:50;7.80;99.90
3562;DHT22;1795;52.074;4.754;2023-03-01T14:01:28;8.00;99.90
3562;DHT22;1795;52.074;4.754;2023-03-01T14:03:58;8.30;99.90
3562;DHT22;1795;52.074;4.754;2023-03-01T14:06:27;8.60;99.90
3562;DHT22;1795;52.074;4.754;2023-03-01T14:09:10;8.90;99.90
3562;DHT22;1795;52.074;4.754;2023-03-01T14:12:12;9.20;99.90
3562;DHT22;1795;52.074;4.754;2023-03-01T14:14:49;9.50;99.90
3562;DHT22;1795;52.074;4.754;2023-03-01T14:17:32;9.80;99.90
3562;DHT22;1795;52.074;4.754;2023-03-01T14:20:11;9.80;99.40
3562;DHT22;1795;52.074;4.754;2023-03-01T14:22:41;9.80;99.80
3562;DHT22;1795;52.074;4.754;2023-03-01T14:25:22;9.80;99.90
3562;DHT22;1795;52.074;4.754;2023-03-01T14:28:03;9.60;99.50
3562;DHT22;1795;52.074;4.754;2023-03-01T14:30:34;9.50;99.20
3562;DHT22;1795;52.074;4.754;2023-03-01T14:33:05;9.40;99.30
3562;DHT22;1795;52.074;4.754;2023-03-01T14:35:35;9.20;99.60
3562;DHT22;1795;52.074;4.754;2023-03-01T14:38:03;9.00;99.90
3562;DHT22;1795;52.074;4.754;2023-03-01T14:40:35;9.00;99.90
3562;DHT22;1795;52.074;4.754;2023-03-01T14:43:10;8.90;99.90
3562;DHT22;1795;52.074;4.754;2023-03-01T14:45:38;8.80;99.90
3562;DHT22;1795;52.074;4.754;2023-03-01T14:48:07;8.70;99.90
3562;DHT22;1795;52.074;4.754;2023-03-01T14:50:40;8.60;99.90
3562;DHT22;1795;52.074;4.754;2023-03-01T14:53:16;8.60;99.90
3562;DHT22;1795;52.074;4.754;2023-03-01T14:55:50;8.50;99.90
3562;DHT22;1795;52.074;4.754;2023-03-01T14:58:21;8.50;99.90
3562;DHT22;1795;52.074;4.754;2023-03-01T15:00:52;8.40;99.90
3562;DHT22;1795;52.074;4.754;2023-03-01T15:03:25;8.30;99.90
3562;DHT22;1795;52.074;4.754;2023-03-01T15:05:56;8.30;99.90
3562;DHT22;1795;52.074;4.754;2023-03-01T15:08:25;8.30;99.90
3562;DHT22;1795;52.074;4.754;2023-03-01T15:11:03;8.30;99.90
3562;DHT22;1795;52.074;4.754;2023-03-01T15:13:35;8.20;99.90
3562;DHT22;1795;52.074;4.754;2023-03-01T15:16:08;8.20;99.90
3562;DHT22;1795;52.074;4.754;2023-03-01T15:18:38;8.20;99.90
3562;DHT22;1795;52.074;4.754;2023-03-01T15:21:17;8.20;99.90
3562;DHT22;1795;52.074;4.754;2023-03-01T15:23:50;8.20;99.90
3562;DHT22;1795;52.074;4.754;2023-03-01T15:26:28;8.10;99.90
3562;DHT22;1795;52.074;4.754;2023-03-01T15:28:58;8.10;99.90
3562;DHT22;1795;52.074;4.754;2023-03-01T15:31:28;8.10;99.90
3562;DHT22;1795;52.074;4.754;2023-03-01T15:34:19;8.10;99.90
3562;DHT22;1795;52.074;4.754;2023-03-01T15:36:49;8.10;99.90
3562;DHT22;1795;52.074;4.754;2023-03-01T15:39:39;8.00;99.90
3562;DHT22;1795;52.074;4.754;2023-03-01T15:42:12;8.00;99.90
3562;DHT22;1795;52.074;4.754;2023-03-01T15:44:41;8.00;99.90
3562;DHT22;1795;52.074;4.754;2023-03-01T15:47:26;7.90;99.90
3562;DHT22;1795;52.074;4.754;2023-03-01T15:49:56;7.90;99.90
3562;DHT22;1795;52.074;4.754;2023-03-01T15:52:27;7.90;99.90
3562;DHT22;1795;52.074;4.754;2023-03-01T15:54:58;7.80;99.90
3562;DHT22;1795;52.074;4.754;2023-03-01T15:57:28;7.80;99.90
3562;DHT22;1795;52.074;4.754;2023-03-01T15:59:56;7.80;99.90
3562;DHT22;1795;52.074;4.754;2023-03-01T16:02:24;7.70;99.90
3562;DHT22;1795;52.074;4.754;2023-03-01T16:04:52;7.70;99.90
3562;DHT22;1795;52.074;4.754;2023-03-01T16:07:23;7.70;99.90
3562;DHT22;1795;52.074;4.754;2023-03-01T16:09:53;7.70;99.90
3562;DHT22;1795;52.074;4.754;2023-03-01T16:12:21;7.60;99.90
3562;DHT22;1795;52.074;4.754;2023-03-01T16:14:52;7.60;99.90
3562;DHT22;1795;52.074;4.754;2023-03-01T16:17:20;7.60;99.90
3562;DHT22;1795;52.074;4.754;2023-03-01T16:19:48;7.50;99.90
3562;DHT22;1795;52.074;4.754;2023-03-01T16:22:16;7.50;99.90
3562;DHT22;1795;52.074;4.754;2023-03-01T16:24:47;7.50;99.90
3562;DHT22;1795;52.074;4.754;2023-03-01T16:27:15;7.40;99.90
3562;DHT22;1795;52.074;4.754;2023-03-01T16:29:44;7.40;99.90
3562;DHT22;1795;52.074;4.754;2023-03-01T16:32:13;7.30;99.90
3562;DHT22;1795;52.074;4.754;2023-03-01T16:34:41;7.30;99.90
3562;DHT22;1795;52.074;4.754;2023-03-01T16:37:09;7.30;99.90
3562;DHT22;1795;52.074;4.754;2023-03-01T16:39:38;7.20;99.90
3562;DHT22;1795;52.074;4.754;2023-03-01T16:42:06;7.20;99.90
3562;DHT22;1795;52.074;4.754;2023-03-01T16:44:34;7.10;99.90
3562;DHT22;1795;52.074;4.754;2023-03-01T16:47:02;7.10;99.90
3562;DHT22;1795;52.074;4.754;2023-03-01T16:49:31;7.00;99.90
3562;DHT22;1795;52.074;4.754;2023-03-01T16:51:59;7.00;99.90
3562;DHT22;1795;52.074;4.754;2023-03-01T16:54:27;6.90;99.90
3562;DHT22;1795;52.074;4.754;2023-03-01T16:56:55;6.90;99.90